sensor_id;sensor_type;location;lat;lon;timestamp;temperature;humidity
5492;DHT22;2768;53.540;10.224;2022-07-29T00:03:39;16.40;1.00
5492;DHT22;2768;53.540;10.224;2022-07-29T00:09:32;16.30;1.00
5492;DHT22;2768;53.540;10.224;2022-07-29T00:15:42;16.30;1.00
5492;DHT22;2768;53.540;10.224;2022-07-29T00:21:43;16.20;1.00
5492;DHT22;2768;53.540;10.224;2022-07-29T00:27:36;16.20;1.00
5492;DHT22;2768;53.540;10.224;2022-07-29T00:33:32;16.10;1.00
5492;DHT22;2768;53.540;10.224;2022-07-29T00:39:29;16.10;1.00
5492;DHT22;2768;53.540;10.224;2022-07-29T00:45:22;16.10;1.00
5492;DHT22;2768;53.540;10.224;2022-07-29T00:51:17;15.90;1.00
5492;DHT22;2768;53.540;10.224;2022-07-29T00:57:22;15.90;1.00
5492;DHT22;2768;53.540;10.224;2022-07-29T01:03:15;15.90;1.00
5492;DHT22;2768;53.540;10.224;2022-07-29T01:09:12;15.80;1.00
5492;DHT22;2768;53.540;10.224;2022-07-29T01:15:27;15.90;1.00
5492;DHT22;2768;53.540;10.224;2022-07-29T01:21:50;16.00;1.00
5492;DHT22;2768;53.540;10.224;2022-07-29T01:28:08;16.10;1.00
5492;DHT22;2768;53.540;10.224;2022-07-29T01:34:11;16.10;1.00
5492;DHT22;2768;53.540;10.224;2022-07-29T01:40:11;15.90;1.00
5492;DHT22;2768;53.540;10.224;2022-07-29T01:46:21;15.80;1.00
5492;DHT22;2768;53.540;10.224;2022-07-29T01:52:24;15.90;1.00
5492;DHT22;2768;53.540;10.224;2022-07-29T01:58:21;15.80;1.00
5492;DHT22;2768;53.540;10.224;2022-07-29T02:04:16;16.00;1.00
5492;DHT22;2768;53.540;10.224;2022-07-29T02:10:26;15.90;1.00
5492;DHT22;2768;53.540;10.224;2022-07-29T02:16:21;15.80;1.00
5492;DHT22;2768;53.540;10.224;2022-07-29T02:22:14;15.80;1.00
5492;DHT22;2768;53.540;10.224;2022-07-29T02:28:10;15.90;1.00
5492;DHT22;2768;53.540;10.224;2022-07-29T02:34:06;15.90;1.00
5492;DHT22;2768;53.540;10.224;2022-07-29T02:40:01;15.90;1.00
5492;DHT22;2768;53.540;10.224;2022-07-29T02:45:57;15.80;1.00
5492;DHT22;2768;53.540;10.224;2022-07-29T02:51:55;15.80;1.00
5492;DHT22;2768;53.540;10.224;2022-07-29T02:57:53;15.90;1.00
5492;DHT22;2768;53.540;10.224;2022-07-29T03:03:53;15.70;1.00
5492;DHT22;2768;53.540;10.224;2022-07-29T03:09:47;15.70;1.00
5492;DHT22;2768;53.540;10.224;2022-07-29T03:15:43;15.80;1.00
5492;DHT22;2768;53.540;10.224;2022-07-29T03:21:40;15.60;1.00
5492;DHT22;2768;53.540;10.224;2022-07-29T03:27:34;15.80;1.00
5492;DHT22;2768;53.540;10.224;2022-07-29T03:33:28;15.70;1.00
5492;DHT22;2768;53.540;10.224;2022-07-29T03:39:29;15.70;1.00
5492;DHT22;2768;53.540;10.224;2022-07-29T03:45:24;15.50;2.20
5492;DHT22;2768;53.540;10.224;2022-07-29T03:51:18;15.50;8.60
5492;DHT22;2768;53.540;10.224;2022-07-29T03:57:30;15.60;9.40
5492;DHT22;2768;53.540;10.224;2022-07-29T04:03:24;15.60;10.80
5492;DHT22;2768;53.540;10.224;2022-07-29T04:09:18;15.60;8.00
5492;DHT22;2768;53.540;10.224;2022-07-29T04:15:15;15.40;10.60
5492;DHT22;2768;53.540;10.224;2022-07-29T04:21:13;15.40;17.00
5492;DHT22;2768;53.540;10.224;2022-07-29T04:27:09;15.60;15.90
5492;DHT22;2768;53.540;10.224;2022-07-29T04:33:08;15.50;15.90
5492;DHT22;2768;53.540;10.224;2022-07-29T04:39:02;15.50;18.50
5492;DHT22;2768;53.540;10.224;2022-07-29T04:44:55;15.50;19.60
5492;DHT22;2768;53.540;10.224;2022-07-29T04:50:56;15.60;21.90
5492;DHT22;2768;53.540;10.224;2022-07-29T04:56:49;15.70;21.10
5492;DHT22;2768;53.540;10.224;2022-07-29T05:02:42;15.60;24.20
5492;DHT22;2768;53.540;10.224;2022-07-29T05:08:37;15.70;24.70
5492;DHT22;2768;53.540;10.224;2022-07-29T05:14:32;15.70;27.30
5492;DHT22;2768;53.540;10.224;2022-07-29T05:20:28;15.70;29.10
5492;DHT22;2768;53.540;10.224;2022-07-29T05:26:26;15.80;29.90
5492;DHT22;2768;53.540;10.224;2022-07-29T05:32:19;15.70;31.00
5492;DHT22;2768;53.540;10.224;2022-07-29T05:38:12;15.90;34.30
5492;DHT22;2768;53.540;10.224;2022-07-29T05:44:09;16.00;34.70
5492;DHT22;2768;53.540;10.224;2022-07-29T05:50:04;16.00;34.00
5492;DHT22;2768;53.540;10.224;2022-07-29T05:55:57;16.10;36.10
5492;DHT22;2768;53.540;10.224;2022-07-29T06:01:52;16.20;37.60
5492;DHT22;2768;53.540;10.224;2022-07-29T06:07:48;16.30;39.10
5492;DHT22;2768;53.540;10.224;2022-07-29T06:13:42;16.30;43.50
5492;DHT22;2768;53.540;10.224;2022-07-29T06:19:36;16.40;43.00
5492;DHT22;2768;53.540;10.224;2022-07-29T06:25:32;16.50;44.20
5492;DHT22;2768;53.540;10.224;2022-07-29T06:31:30;16.50;50.00
5492;DHT22;2768;53.540;10.224;2022-07-29T06:37:27;16.50;56.50
5492;DHT22;2768;53.540;10.224;2022-07-29T06:43:28;16.70;52.50
5492;DHT22;2768;53.540;10.224;2022-07-29T06:49:25;16.70;61.00
5492;DHT22;2768;53.540;10.224;2022-07-29T06:55:24;16.80;63.80
5492;DHT22;2768;53.540;10.224;2022-07-29T07:01:17;16.90;64.90
5492;DHT22;2768;53.540;10.224;2022-07-29T07:07:13;17.00;61.50
5492;DHT22;2768;53.540;10.224;2022-07-29T07:13:10;17.10;64.60
5492;DHT22;2768;53.540;10.224;2022-07-29T07:19:04;17.20;65.30
5492;DHT22;2768;53.540;10.224;2022-07-29T07:25:05;17.20;65.20
5492;DHT22;2768;53.540;10.224;2022-07-29T07:31:00;17.30;63.30
5492;DHT22;2768;53.540;10.224;2022-07-29T07:36:53;17.40;63.30
5492;DHT22;2768;53.540;10.224;2022-07-29T07:42:46;17.40;64.00
5492;DHT22;2768;53.540;10.224;2022-07-29T07:48:41;17.50;69.20
5492;DHT22;2768;53.540;10.224;2022-07-29T07:54:34;17.60;71.40
5492;DHT22;2768;53.540;10.224;2022-07-29T08:00:27;17.70;65.60
5492;DHT22;2768;53.540;10.224;2022-07-29T08:06:22;17.80;72.80
5492;DHT22;2768;53.540;10.224;2022-07-29T08:12:16;17.90;70.80
5492;DHT22;2768;53.540;10.224;2022-07-29T08:18:09;18.00;88.20
5492;DHT22;2768;53.540;10.224;2022-07-29T08:24:05;18.10;86.20
5492;DHT22;2768;53.540;10.224;2022-07-29T08:30:16;18.20;80.40
5492;DHT22;2768;53.540;10.224;2022-07-29T08:36:09;18.30;85.60
5492;DHT22;2768;53.540;10.224;2022-07-29T08:42:06;18.40;87.60
5492;DHT22;2768;53.540;10.224;2022-07-29T08:47:59;18.50;81.70
5492;DHT22;2768;53.540;10.224;2022-07-29T08:53:53;18.60;82.40
5492;DHT22;2768;53.540;10.224;2022-07-29T08:59:50;18.80;84.10
5492;DHT22;2768;53.540;10.224;2022-07-29T09:05:45;18.90;83.70
5492;DHT22;2768;53.540;10.224;2022-07-29T09:11:39;19.00;60.70
5492;DHT22;2768;53.540;10.224;2022-07-29T09:17:41;19.20;47.90
5492;DHT22;2768;53.540;10.224;2022-07-29T09:23:34;19.30;42.20
5492;DHT22;2768;53.540;10.224;2022-07-29T09:29:27;19.50;64.10
5492;DHT22;2768;53.540;10.224;2022-07-29T09:35:28;19.70;63.70
5492;DHT22;2768;53.540;10.224;2022-07-29T09:41:23;19.80;46.80
5492;DHT22;2768;53.540;10.224;2022-07-29T09:47:19;19.90;43.50
5492;DHT22;2768;53.540;10.224;2022-07-29T09:53:29;20.00;29.10
5492;DHT22;2768;53.540;10.224;2022-07-29T09:59:25;20.00;23.90
5492;DHT22;2768;53.540;10.224;2022-07-29T10:05:20;20.20;10.50
5492;DHT22;2768;53.540;10.224;2022-07-29T10:11:16;20.30;9.30
5492;DHT22;2768;53.540;10.224;2022-07-29T10:17:10;20.40;1.00
5492;DHT22;2768;53.540;10.224;2022-07-29T10:23:06;20.50;1.00
5492;DHT22;2768;53.540;10.224;2022-07-29T10:29:01;20.60;1.00
5492;DHT22;2768;53.540;10.224;2022-07-29T10:35:18;20.60;1.00
5492;DHT22;2768;53.540;10.224;2022-07-29T10:42:00;20.70;1.00
5492;DHT22;2768;53.540;10.224;2022-07-29T10:48:04;20.80;1.00
5492;DHT22;2768;53.540;10.224;2022-07-29T10:53:58;20.80;1.00
5492;DHT22;2768;53.540;10.224;2022-07-29T11:00:27;20.90;1.00
5492;DHT22;2768;53.540;10.224;2022-07-29T11:06:24;21.10;1.00
5492;DHT22;2768;53.540;10.224;2022-07-29T11:12:46;21.30;1.00
5492;DHT22;2768;53.540;10.224;2022-07-29T11:25:21;22.00;1.00
5492;DHT22;2768;53.540;10.224;2022-07-29T11:31:38;22.40;1.00
5492;DHT22;2768;53.540;10.224;2022-07-29T11:37:33;22.60;1.00
5492;DHT22;2768;53.540;10.224;2022-07-29T11:43:47;22.70;1.00
5492;DHT22;2768;53.540;10.224;2022-07-29T11:49:44;22.60;1.00
5492;DHT22;2768;53.540;10.224;2022-07-29T11:55:39;22.90;1.00
5492;DHT22;2768;53.540;10.224;2022-07-29T12:01:53;23.10;1.00
5492;DHT22;2768;53.540;10.224;2022-07-29T12:08:09;23.50;1.00
5492;DHT22;2768;53.540;10.224;2022-07-29T12:14:03;24.10;1.00
5492;DHT22;2768;53.540;10.224;2022-07-29T12:20:00;24.50;1.00
5492;DHT22;2768;53.540;10.224;2022-07-29T12:26:00;24.60;1.00
5492;DHT22;2768;53.540;10.224;2022-07-29T12:31:58;24.80;1.00
5492;DHT22;2768;53.540;10.224;2022-07-29T12:37:56;25.20;1.00
5492;DHT22;2768;53.540;10.224;2022-07-29T12:44:03;25.10;1.00
5492;DHT22;2768;53.540;10.224;2022-07-29T12:50:10;25.10;1.00
5492;DHT22;2768;53.540;10.224;2022-07-29T12:56:15;25.10;1.00
5492;DHT22;2768;53.540;10.224;2022-07-29T13:02:28;25.20;1.00
5492;DHT22;2768;53.540;10.224;2022-07-29T13:08:22;25.40;1.00
5492;DHT22;2768;53.540;10.224;2022-07-29T13:14:31;25.40;1.00
5492;DHT22;2768;53.540;10.224;2022-07-29T13:20:27;25.80;1.00
5492;DHT22;2768;53.540;10.224;2022-07-29T13:26:21;26.10;1.00
5492;DHT22;2768;53.540;10.224;2022-07-29T13:32:15;26.80;1.00
5492;DHT22;2768;53.540;10.224;2022-07-29T13:38:08;27.50;1.00
5492;DHT22;2768;53.540;10.224;2022-07-29T13:44:01;28.40;1.00
5492;DHT22;2768;53.540;10.224;2022-07-29T13:49:56;28.70;1.00
5492;DHT22;2768;53.540;10.224;2022-07-29T13:55:49;29.10;1.00
5492;DHT22;2768;53.540;10.224;2022-07-29T14:01:43;29.40;1.00
5492;DHT22;2768;53.540;10.224;2022-07-29T14:07:41;29.60;1.00
5492;DHT22;2768;53.540;10.224;2022-07-29T14:13:34;29.80;1.00
5492;DHT22;2768;53.540;10.224;2022-07-29T14:19:27;29.80;1.00
5492;DHT22;2768;53.540;10.224;2022-07-29T14:25:22;29.20;1.00
5492;DHT22;2768;53.540;10.224;2022-07-29T14:31:17;29.20;1.00
5492;DHT22;2768;53.540;10.224;2022-07-29T14:37:11;29.30;1.00
5492;DHT22;2768;53.540;10.224;2022-07-29T14:43:08;29.90;1.00
5492;DHT22;2768;53.540;10.224;2022-07-29T14:49:01;29.80;1.00
5492;DHT22;2768;53.540;10.224;2022-07-29T14:54:57;29.30;1.00
5492;DHT22;2768;53.540;10.224;2022-07-29T15:00:57;28.80;1.00
5492;DHT22;2768;53.540;10.224;2022-07-29T15:06:50;28.20;1.00
5492;DHT22;2768;53.540;10.224;2022-07-29T15:12:46;27.80;1.00
5492;DHT22;2768;53.540;10.224;2022-07-29T15:18:41;27.40;1.00
5492;DHT22;2768;53.540;10.224;2022-07-29T15:24:36;27.20;1.00
5492;DHT22;2768;53.540;10.224;2022-07-29T15:30:32;26.90;1.00
5492;DHT22;2768;53.540;10.224;2022-07-29T15:36:30;26.80;1.00
5492;DHT22;2768;53.540;10.224;2022-07-29T15:42:43;26.60;1.00
5492;DHT22;2768;53.540;10.224;2022-07-29T15:48:46;26.40;1.00
5492;DHT22;2768;53.540;10.224;2022-07-29T15:54:46;26.30;1.00
5492;DHT22;2768;53.540;10.224;2022-07-29T16:00:39;26.10;1.00
5492;DHT22;2768;53.540;10.224;2022-07-29T16:06:32;26.00;1.00
5492;DHT22;2768;53.540;10.224;2022-07-29T16:12:30;25.80;1.00
5492;DHT22;2768;53.540;10.224;2022-07-29T16:18:23;25.70;1.00
5492;DHT22;2768;53.540;10.224;2022-07-29T16:24:21;25.70;1.00
5492;DHT22;2768;53.540;10.224;2022-07-29T16:30:17;25.70;1.00
5492;DHT22;2768;53.540;10.224;2022-07-29T16:36:11;25.60;1.00
5492;DHT22;2768;53.540;10.224;2022-07-29T16:42:09;25.50;1.00
5492;DHT22;2768;53.540;10.224;2022-07-29T16:48:23;25.50;1.00
5492;DHT22;2768;53.540;10.224;2022-07-29T16:54:16;25.30;1.00
5492;DHT22;2768;53.540;10.224;2022-07-29T17:00:11;25.20;1.00
5492;DHT22;2768;53.540;10.224;2022-07-29T17:06:05;25.00;1.00
5492;DHT22;2768;53.540;10.224;2022-07-29T17:12:01;24.90;1.00
5492;DHT22;2768;53.540;10.224;2022-07-29T17:18:02;24.80;1.00
5492;DHT22;2768;53.540;10.224;2022-07-29T17:24:05;24.70;1.00
5492;DHT22;2768;53.540;10.224;2022-07-29T17:30:07;24.60;1.00
5492;DHT22;2768;53.540;10.224;2022-07-29T17:36:01;24.50;1.00
5492;DHT22;2768;53.540;10.224;2022-07-29T17:42:12;24.40;1.00
5492;DHT22;2768;53.540;10.224;2022-07-29T17:48:07;24.30;1.00
5492;DHT22;2768;53.540;10.224;2022-07-29T17:54:03;24.20;1.00
5492;DHT22;2768;53.540;10.224;2022-07-29T18:00:21;24.10;1.00
5492;DHT22;2768;53.540;10.224;2022-07-29T18:06:17;24.00;1.00
5492;DHT22;2768;53.540;10.224;2022-07-29T18:12:29;23.90;1.00
5492;DHT22;2768;53.540;10.224;2022-07-29T18:18:26;23.80;1.00
5492;DHT22;2768;53.540;10.224;2022-07-29T18:24:22;23.60;1.00
5492;DHT22;2768;53.540;10.224;2022-07-29T18:30:18;23.50;1.00
5492;DHT22;2768;53.540;10.224;2022-07-29T18:36:13;23.50;1.00
5492;DHT22;2768;53.540;10.224;2022-07-29T18:42:06;23.30;1.00
5492;DHT22;2768;53.540;10.224;2022-07-29T18:47:59;23.20;1.00
5492;DHT22;2768;53.540;10.224;2022-07-29T18:53:54;23.10;1.00
5492;DHT22;2768;53.540;10.224;2022-07-29T18:59:47;23.10;1.00
5492;DHT22;2768;53.540;10.224;2022-07-29T19:05:41;22.90;1.00
5492;DHT22;2768;53.540;10.224;2022-07-29T19:11:36;22.80;1.00
5492;DHT22;2768;53.540;10.224;2022-07-29T19:17:30;22.60;1.00
5492;DHT22;2768;53.540;10.224;2022-07-29T19:23:23;22.60;1.00
5492;DHT22;2768;53.540;10.224;2022-07-29T19:29:19;22.50;1.00
5492;DHT22;2768;53.540;10.224;2022-07-29T19:35:14;22.30;2.20
5492;DHT22;2768;53.540;10.224;2022-07-29T19:41:25;22.20;8.80
5492;DHT22;2768;53.540;10.224;2022-07-29T19:47:22;22.00;15.30
5492;DHT22;2768;53.540;10.224;2022-07-29T19:53:15;22.10;19.40
5492;DHT22;2768;53.540;10.224;2022-07-29T19:59:11;22.10;21.30
5492;DHT22;2768;53.540;10.224;2022-07-29T20:05:11;21.90;27.50
5492;DHT22;2768;53.540;10.224;2022-07-29T20:11:05;21.80;36.30
5492;DHT22;2768;53.540;10.224;2022-07-29T20:17:02;21.60;45.80
5492;DHT22;2768;53.540;10.224;2022-07-29T20:23:06;21.60;54.00
5492;DHT22;2768;53.540;10.224;2022-07-29T20:29:00;21.40;69.00
5492;DHT22;2768;53.540;10.224;2022-07-29T20:34:55;21.40;77.70
5492;DHT22;2768;53.540;10.224;2022-07-29T20:40:50;21.30;88.70
5492;DHT22;2768;53.540;10.224;2022-07-29T20:46:45;21.50;86.00
5492;DHT22;2768;53.540;10.224;2022-07-29T20:52:39;21.40;86.90
5492;DHT22;2768;53.540;10.224;2022-07-29T20:58:37;21.40;91.00
5492;DHT22;2768;53.540;10.224;2022-07-29T21:04:31;21.30;92.60
5492;DHT22;2768;53.540;10.224;2022-07-29T21:10:28;21.30;94.60
5492;DHT22;2768;53.540;10.224;2022-07-29T21:16:27;21.40;94.30
5492;DHT22;2768;53.540;10.224;2022-07-29T21:22:24;21.30;93.20
5492;DHT22;2768;53.540;10.224;2022-07-29T21:28:22;21.30;92.60
5492;DHT22;2768;53.540;10.224;2022-07-29T21:34:27;21.30;90.60
5492;DHT22;2768;53.540;10.224;2022-07-29T21:40:20;21.40;86.30
5492;DHT22;2768;53.540;10.224;2022-07-29T21:46:16;21.40;83.60
5492;DHT22;2768;53.540;10.224;2022-07-29T21:52:16;21.40;80.20
5492;DHT22;2768;53.540;10.224;2022-07-29T21:58:12;21.20;79.90
5492;DHT22;2768;53.540;10.224;2022-07-29T22:04:06;21.20;78.50
5492;DHT22;2768;53.540;10.224;2022-07-29T22:10:00;21.10;76.00
5492;DHT22;2768;53.540;10.224;2022-07-29T22:15:56;21.10;73.30
5492;DHT22;2768;53.540;10.224;2022-07-29T22:21:49;21.20;68.90
5492;DHT22;2768;53.540;10.224;2022-07-29T22:27:59;21.20;68.90
5492;DHT22;2768;53.540;10.224;2022-07-29T22:33:53;21.20;68.90
5492;DHT22;2768;53.540;10.224;2022-07-29T22:39:48;21.20;60.20
5492;DHT22;2768;53.540;10.224;2022-07-29T22:45:42;21.30;60.00
5492;DHT22;2768;53.540;10.224;2022-07-29T22:51:38;21.10;60.70
5492;DHT22;2768;53.540;10.224;2022-07-29T22:57:31;21.10;57.00
5492;DHT22;2768;53.540;10.224;2022-07-29T23:03:27;21.10;64.40
5492;DHT22;2768;53.540;10.224;2022-07-29T23:09:20;20.90;60.00
5492;DHT22;2768;53.540;10.224;2022-07-29T23:15:13;20.90;62.10
5492;DHT22;2768;53.540;10.224;2022-07-29T23:21:17;20.90;63.70
5492;DHT22;2768;53.540;10.224;2022-07-29T23:27:11;20.80;62.70
5492;DHT22;2768;53.540;10.224;2022-07-29T23:33:04;20.90;64.70
5492;DHT22;2768;53.540;10.224;2022-07-29T23:39:10;20.90;68.20
5492;DHT22;2768;53.540;10.224;2022-07-29T23:45:04;20.90;65.70
5492;DHT22;2768;53.540;10.224;2022-07-29T23:50:57;20.90;64.60
5492;DHT22;2768;53.540;10.224;2022-07-29T23:56:56;20.90;63.90
